Time,TemperatureF,DewpointF,PressureIn,WindDirection,WindDirectionDegrees,WindSpeedMPH,WindSpeedGustMPH,Humidity,HourlyPrecipIn,Conditions,Clouds,dailyrainin,SoftwareType,DateUTC
2013-11-02 00:12:00,49.0,-99.9,-100.00,NNW,346,3.0,3.0,-999,-99.99,,,-99.99,,2013-11-02 07:12:00,
2013-11-02 01:12:00,48.0,-99.9,-100.00,North,11,3.0,7.0,-999,-99.99,,,-99.99,,2013-11-02 08:12:00,
2013-11-02 02:11:00,48.0,-99.9,-100.00,NNE,23,2.0,3.0,-999,-99.99,,,-99.99,,2013-11-02 09:11:00,
2013-11-02 03:13:00,48.0,-99.9,-100.00,NW,304,3.0,7.0,-999,-99.99,,,-99.99,,2013-11-02 10:13:00,
2013-11-02 05:12:00,48.0,-99.9,-100.00,NNE,23,3.0,6.0,-999,-99.99,,,-99.99,,2013-11-02 12:12:00,
2013-11-02 06:12:00,46.0,-99.9,-100.00,WNW,285,5.0,7.0,-999,-99.99,,,-99.99,,2013-11-02 13:12:00,
2013-11-02 07:11:00,46.0,-99.9,-100.00,NNW,348,1.0,3.0,-999,-99.99,,,-99.99,,2013-11-02 14:11:00,
2013-11-02 08:11:00,46.0,-99.9,-100.00,West,273,2.0,3.0,-999,-99.99,,,-99.99,,2013-11-02 15:11:00,
2013-11-02 09:13:00,46.0,-99.9,-100.00,ENE,60,5.0,8.0,-999,-99.99,,,-99.99,,2013-11-02 16:13:00,
2013-11-02 10:13:00,48.0,-99.9,-100.00,SSW,200,5.0,8.0,-999,-99.99,,,-99.99,,2013-11-02 17:13:00,
2013-11-02 11:12:00,54.0,-99.9,-100.00,SW,215,21.0,31.0,-999,-99.99,,,-99.99,,2013-11-02 18:12:00,
2013-11-02 12:12:00,57.0,-99.9,-100.00,SSW,213,30.0,44.0,-999,-99.99,,,-99.99,,2013-11-02 19:12:00,
2013-11-02 13:12:00,59.0,-99.9,-100.00,WSW,241,28.0,43.0,-999,-99.99,,,-99.99,,2013-11-02 20:12:00,
2013-11-02 14:12:00,59.0,-99.9,-100.00,WSW,244,39.0,55.0,-999,-99.99,,,-99.99,,2013-11-02 21:12:00,
2013-11-02 15:13:00,58.0,-99.9,-100.00,WSW,239,36.0,60.0,-999,-99.99,,,-99.99,,2013-11-02 22:13:00,
2013-11-02 16:12:00,56.0,-99.9,-100.00,SW,232,31.0,51.0,-999,-99.99,,,-99.99,,2013-11-02 23:12:00,
2013-11-02 18:11:00,52.0,-99.9,-100.00,WSW,250,27.0,40.0,-999,-99.99,,,-99.99,,2013-11-03 01:11:00,
2013-11-02 20:12:00,47.0,-99.9,-100.00,SW,226,20.0,29.0,-999,-99.99,,,-99.99,,2013-11-03 03:12:00,
2013-11-02 21:03:00,-999.0,-99.9,-100.00,WSW,239,17.0,27.0,-999,-99.99,,,-99.99,,2013-11-03 04:03:00,
2013-11-02 21:14:00,45.0,-99.9,-100.00,WSW,239,17.0,27.0,-999,-99.99,,,-99.99,,2013-11-03 04:14:00,
2013-11-02 22:13:00,45.0,-99.9,-100.00,SW,234,22.0,35.0,-999,-99.99,,,-99.99,,2013-11-03 05:13:00,
2013-11-02 23:13:00,43.0,-99.9,-100.00,WSW,241,16.0,29.0,-999,-99.99,,,-99.99,,2013-11-03 06:13:00,